Terminal Aerodrome Forecast
Issued by NWS Upton, NY

Home | Current Version | Previous Version | Text Only | Print | Product List | Glossary On
Versions: 1 2 3 4 5 6 7 8 9 10 11 12 13 14 15 16 17 18 19 20 21 22 23 24 25 26 27 28 29 30 31 32 33 34
636
FTUS41 KOKX 310223 AAA
TAFLGA
TAF AMD
KLGA 310223Z 3102/3124 21008KT P6SM BKN015
     FM310700 23005KT 6SM BR SCT015 BKN090
      TEMPO 3107/3111 3SM BR
     FM311100 34005KT P6SM SCT120 BKN250
     FM311400 05005KT P6SM FEW050 SCT250
     FM312000 18010KT P6SM FEW050 SCT250=

USA.gov is the U.S. government's official web portal to all federal, state and local government web resources and services.